Arpan, South Dakota
Current Conditions -  °F | °C
As of 3:15 AM on Thursday 27 Nov 2014 (Local Time) from KSPF Reporting Station
Haze Haze  
Wind Chill: 18°   Ceiling: 9000
Heat Index: 18°   Visibility: 3mi
Dew Point: 18°   Wind: 0mph
Humidity: 100%   Direction: NA
Pressure: 30.12"   Gusts: NA
Location:  44.6391°N, 103.522°W
Report Text: KSPF 271015Z AUTO 00000KT 3SM BR FEW002 SCT065 BKN090 M08/M08 A3012 RMK AO2
Loading
Personal Weather Stations






























Interactive Weather Map New forecast layout! Learn more

10-Day Weather Forecast

Advertisements
Track Severe Weather on mobile